createdAt,value
2018-11-27T00:00:42.401Z,22.63
2018-11-27T00:03:09.820Z,22.97
2018-11-27T00:05:38.735Z,24.07
2018-11-27T00:08:06.583Z,22.97
2018-11-27T00:10:34.801Z,23.37
2018-11-27T00:13:02.438Z,25.47
2018-11-27T00:15:29.917Z,24.40
2018-11-27T00:17:57.368Z,23.93
2018-11-27T00:20:24.823Z,27.53
2018-11-27T00:22:52.613Z,23.77
2018-11-27T00:25:20.078Z,24.13
2018-11-27T00:27:47.575Z,24.03
2018-11-27T00:30:16.520Z,25.30
2018-11-27T00:32:44.005Z,24.47
2018-11-27T00:35:12.135Z,21.77
2018-11-27T00:37:39.562Z,24.90
2018-11-27T00:40:08.806Z,24.53
2018-11-27T00:42:36.374Z,25.80
2018-11-27T00:45:04.442Z,24.87
2018-11-27T00:47:32.416Z,20.27
2018-11-27T00:49:59.970Z,21.13
2018-11-27T00:52:27.439Z,20.50
2018-11-27T00:54:58.710Z,20.57
2018-11-27T00:57:22.537Z,20.87
2018-11-27T00:59:49.954Z,18.93
2018-11-27T01:02:17.577Z,21.70
2018-11-27T01:04:50.576Z,20.90
2018-11-27T01:07:18.144Z,21.90
2018-11-27T01:09:45.827Z,21.53
2018-11-27T01:12:13.359Z,21.50
2018-11-27T01:14:40.857Z,19.53
2018-11-27T01:17:13.646Z,20.30
2018-11-27T01:19:41.104Z,18.90
2018-11-27T01:22:08.608Z,20.10
2018-11-27T01:24:36.124Z,18.60
2018-11-27T01:27:03.802Z,20.03
2018-11-27T01:29:31.388Z,21.90
2018-11-27T01:31:59.246Z,21.87
2018-11-27T01:34:32.406Z,26.87
2018-11-27T01:37:00.143Z,24.40
2018-11-27T01:39:27.572Z,21.83
2018-11-27T01:41:55.058Z,21.53
2018-11-27T01:44:22.699Z,19.93
2018-11-27T01:46:50.136Z,21.13
2018-11-27T01:49:17.844Z,22.50
2018-11-27T01:51:51.390Z,19.70
2018-11-27T01:54:18.848Z,19.47
2018-11-27T01:56:46.312Z,22.93
2018-11-27T01:59:13.855Z,22.87
2018-11-27T02:01:41.288Z,21.07
2018-11-27T02:04:08.715Z,21.53
2018-11-27T02:06:36.280Z,19.73
2018-11-27T02:09:04.592Z,21.80
2018-11-27T02:11:32.207Z,22.60
2018-11-27T02:13:59.720Z,22.17
2018-11-27T02:16:27.197Z,22.97
2018-11-27T02:19:00.399Z,23.20
2018-11-27T02:21:33.426Z,23.97
2018-11-27T02:24:01.261Z,23.50
2018-11-27T02:26:28.766Z,24.30
2018-11-27T02:29:02.121Z,22.67
2018-11-27T02:31:29.680Z,20.73
2018-11-27T02:33:57.100Z,21.73
2018-11-27T02:36:30.144Z,22.90
2018-11-27T02:38:57.588Z,24.27
2018-11-27T02:41:25.060Z,22.77
2018-11-27T02:43:52.677Z,20.57
2018-11-27T02:46:20.113Z,19.80
2018-11-27T02:48:48.210Z,20.90
2018-11-27T02:51:15.890Z,22.47
2018-11-27T02:53:43.550Z,21.83
2018-11-27T02:56:16.721Z,23.20
2018-11-27T02:58:44.150Z,21.40
2018-11-27T03:01:11.635Z,22.70
2018-11-27T03:03:39.117Z,23.97
2018-11-27T03:06:06.566Z,20.97
2018-11-27T03:08:34.193Z,21.63
2018-11-27T03:11:01.681Z,25.10
2018-11-27T03:13:29.220Z,20.70
2018-11-27T03:15:56.717Z,20.57
2018-11-27T03:18:24.374Z,23.43
2018-11-27T03:20:51.794Z,21.40
2018-11-27T03:23:24.838Z,21.07
2018-11-27T03:25:52.354Z,20.30
2018-11-27T03:28:19.840Z,19.93
2018-11-27T03:30:47.454Z,20.73
2018-11-27T03:33:15.072Z,20.87
2018-11-27T03:35:42.607Z,22.67
2018-11-27T03:38:10.163Z,21.97
2018-11-27T03:40:37.770Z,23.37
2018-11-27T03:43:05.202Z,23.07
2018-11-27T03:45:32.678Z,22.03
2018-11-27T03:48:00.109Z,23.60
2018-11-27T03:50:28.368Z,21.97
2018-11-27T03:52:55.893Z,21.27
2018-11-27T03:55:23.485Z,22.57
2018-11-27T03:57:50.923Z,20.10
2018-11-27T04:00:29.525Z,20.63
2018-11-27T04:03:04.331Z,21.53
2018-11-27T04:05:31.990Z,21.27
2018-11-27T04:07:59.429Z,21.47
2018-11-27T04:10:26.932Z,20.57
2018-11-27T04:12:54.389Z,19.90
2018-11-27T04:15:21.822Z,22.77
2018-11-27T04:17:49.258Z,25.20
2018-11-27T04:20:16.805Z,22.30
2018-11-27T04:22:44.328Z,23.77
2018-11-27T04:25:12.645Z,22.37
2018-11-27T04:27:45.848Z,22.07
2018-11-27T04:30:15.088Z,21.23
2018-11-27T04:32:42.792Z,22.40
2018-11-27T04:35:12.048Z,22.27
2018-11-27T04:37:39.521Z,20.97
2018-11-27T04:40:07.879Z,22.77
2018-11-27T04:42:35.384Z,23.30
2018-11-27T04:45:03.071Z,23.63
2018-11-27T04:47:36.162Z,24.10
2018-11-27T04:50:03.927Z,23.37
2018-11-27T04:52:31.366Z,24.40
2018-11-27T04:54:58.827Z,19.07
2018-11-27T04:57:31.842Z,18.77
2018-11-27T04:59:59.359Z,20.90
2018-11-27T05:02:26.837Z,20.70
2018-11-27T05:04:54.298Z,20.60
2018-11-27T05:07:21.941Z,19.33
2018-11-27T05:09:50.033Z,19.87
2018-11-27T05:12:17.511Z,22.10
2018-11-27T05:14:50.549Z,22.40
2018-11-27T05:17:18.064Z,20.87
2018-11-27T05:19:45.523Z,20.23
2018-11-27T05:22:13.035Z,19.93
2018-11-27T05:24:40.451Z,18.23
2018-11-27T05:27:14.087Z,20.63
2018-11-27T05:29:41.521Z,20.20
2018-11-27T05:32:09.221Z,20.07
2018-11-27T05:34:36.720Z,18.90
2018-11-27T05:37:04.337Z,20.47
2018-11-27T05:39:32.197Z,20.07
2018-11-27T05:41:59.665Z,19.37
2018-11-27T05:44:27.227Z,19.93
2018-11-27T05:46:54.626Z,18.87
2018-11-27T05:49:22.105Z,20.33
2018-11-27T05:51:55.069Z,20.70
2018-11-27T05:54:22.560Z,21.43
2018-11-27T05:56:49.989Z,20.93
2018-11-27T05:59:18.095Z,22.27
2018-11-27T06:01:46.609Z,18.93
2018-11-27T06:04:14.899Z,19.70
2018-11-27T06:09:16.517Z,19.07
2018-11-27T06:11:44.189Z,19.80
2018-11-27T06:14:11.599Z,17.67
2018-11-27T06:16:39.089Z,18.60
2018-11-27T06:19:06.601Z,17.87
2018-11-27T06:21:34.363Z,18.83
2018-11-27T06:24:01.907Z,19.33
2018-11-27T06:26:34.853Z,21.47
2018-11-27T06:29:02.427Z,18.83
2018-11-27T06:31:29.835Z,21.23
2018-11-27T06:34:02.711Z,21.97
2018-11-27T06:36:30.135Z,21.47
2018-11-27T06:38:57.699Z,20.70
2018-11-27T06:41:25.239Z,20.40
2018-11-27T06:43:52.761Z,20.17
2018-11-27T06:46:20.217Z,19.80
2018-11-27T06:48:47.983Z,21.07
2018-11-27T06:51:20.805Z,22.00
2018-11-27T06:53:48.367Z,23.33
2018-11-27T06:56:21.419Z,23.07
2018-11-27T06:58:49.143Z,19.43
2018-11-27T07:01:16.605Z,20.13
2018-11-27T07:16:48.935Z,22.13
2018-11-27T07:19:27.401Z,19.17
2018-11-27T07:21:54.999Z,20.53
2018-11-27T07:24:22.541Z,18.90
2018-11-27T07:26:52.878Z,19.67
2018-11-27T07:29:17.641Z,19.70
2018-11-27T07:31:45.515Z,18.57
2018-11-27T07:34:18.508Z,20.37
2018-11-27T07:36:46.123Z,21.70
2018-11-27T07:39:13.554Z,23.80
2018-11-27T07:41:41.053Z,22.17
2018-11-27T07:44:08.629Z,22.50
2018-11-27T07:46:36.126Z,24.37
2018-11-27T07:49:03.694Z,24.37
2018-11-27T07:51:31.161Z,22.73
2018-11-27T07:53:58.596Z,21.93
2018-11-27T07:56:26.091Z,21.40
2018-11-27T07:58:54.071Z,19.37
2018-11-27T08:01:21.585Z,21.00
2018-11-27T08:03:49.139Z,19.23
2018-11-27T08:06:16.682Z,21.57
2018-11-27T08:08:44.147Z,21.10
2018-11-27T08:11:11.859Z,19.47
2018-11-27T08:13:39.298Z,20.13
2018-11-27T08:16:06.862Z,18.20
2018-11-27T08:18:34.351Z,18.53
2018-11-27T08:21:02.117Z,19.87
2018-11-27T08:23:29.886Z,17.57
2018-11-27T08:25:57.375Z,19.43
2018-11-27T08:28:24.810Z,19.17
2018-11-27T08:30:57.659Z,24.17
2018-11-27T08:33:25.361Z,21.80
2018-11-27T08:35:53.004Z,15.63
2018-11-27T08:38:20.683Z,15.90
2018-11-27T08:40:48.329Z,15.93
2018-11-27T08:43:15.760Z,14.63
2018-11-27T08:45:43.526Z,14.27
2018-11-27T08:48:10.954Z,15.97
2018-11-27T08:50:38.395Z,17.83
2018-11-27T08:53:06.566Z,17.97
2018-11-27T08:55:35.138Z,16.93
2018-11-27T08:58:02.875Z,15.20
2018-11-27T09:00:30.369Z,17.53
2018-11-27T09:02:57.936Z,15.63
2018-11-27T09:05:25.382Z,17.70
2018-11-27T09:07:52.864Z,18.57
2018-11-27T09:10:21.407Z,19.57
2018-11-27T09:12:48.847Z,20.00
2018-11-27T09:15:17.085Z,17.67
2018-11-27T09:17:52.802Z,20.10
2018-11-27T09:20:20.963Z,18.57
2018-11-27T09:22:47.922Z,18.53
2018-11-27T09:25:15.582Z,19.33
2018-11-27T09:27:43.226Z,17.90
2018-11-27T09:30:13.305Z,18.47
2018-11-27T09:32:46.506Z,16.43
2018-11-27T09:35:14.290Z,18.50
2018-11-27T09:37:42.112Z,17.70
2018-11-27T09:40:13.028Z,18.40
2018-11-27T09:42:40.505Z,17.67
2018-11-27T09:45:09.826Z,16.90
2018-11-27T09:47:37.640Z,15.27
2018-11-27T09:50:05.899Z,16.77
2018-11-27T09:52:33.455Z,17.13
2018-11-27T09:55:00.939Z,18.30
2018-11-27T09:57:28.464Z,17.40
2018-11-27T09:59:56.002Z,16.17
2018-11-27T10:02:23.484Z,15.63
2018-11-27T10:04:51.135Z,16.83
2018-11-27T10:07:18.683Z,16.03
2018-11-27T10:09:46.411Z,16.57
2018-11-27T10:12:19.572Z,16.47
2018-11-27T10:14:47.050Z,15.47
2018-11-27T10:17:14.527Z,15.70
2018-11-27T10:19:42.183Z,16.47
2018-11-27T10:22:09.680Z,15.83
2018-11-27T10:24:49.142Z,14.27
2018-11-27T10:27:16.638Z,13.00
2018-11-27T10:29:44.883Z,13.97
2018-11-27T10:32:12.312Z,13.77
2018-11-27T10:34:43.507Z,14.33
2018-11-27T10:37:11.554Z,13.87
2018-11-27T10:39:39.038Z,11.63
2018-11-27T10:42:07.222Z,14.30
2018-11-27T10:44:35.023Z,13.57
2018-11-27T10:47:02.562Z,14.77
2018-11-27T10:49:30.067Z,14.40
2018-11-27T10:51:57.513Z,14.97
2018-11-27T10:54:25.039Z,15.80
2018-11-27T10:56:52.550Z,15.93
2018-11-27T10:59:20.312Z,15.53
2018-11-27T11:01:52.835Z,13.83
2018-11-27T11:04:20.635Z,15.13
2018-11-27T11:06:48.114Z,14.93
2018-11-27T11:09:15.663Z,15.50
2018-11-27T11:11:43.378Z,16.10
2018-11-27T11:14:11.159Z,15.17
2018-11-27T11:16:38.690Z,15.53
2018-11-27T11:19:06.390Z,16.80
2018-11-27T11:21:33.863Z,16.20
2018-11-27T11:24:01.376Z,15.43
2018-11-27T11:26:28.987Z,11.63
2018-11-27T11:28:56.416Z,13.03
2018-11-27T11:31:23.890Z,11.10
2018-11-27T11:33:51.328Z,11.43
2018-11-27T11:36:19.730Z,12.03
2018-11-27T11:38:47.652Z,12.43
2018-11-27T11:41:15.114Z,12.87
2018-11-27T11:43:42.975Z,14.03
2018-11-27T11:46:10.464Z,11.37
2018-11-27T11:48:38.051Z,10.17
2018-11-27T11:51:06.075Z,10.67
2018-11-27T11:53:33.710Z,8.57
2018-11-27T11:56:01.144Z,8.77
2018-11-27T11:58:28.574Z,10.67
2018-11-27T12:00:56.825Z,10.27
2018-11-27T12:03:24.416Z,9.80
2018-11-27T12:05:51.874Z,10.50
2018-11-27T12:08:19.354Z,11.80
2018-11-27T12:10:47.096Z,9.33
2018-11-27T12:13:19.879Z,10.37
2018-11-27T12:15:47.810Z,9.83
2018-11-27T12:18:15.392Z,10.23
2018-11-27T12:20:43.022Z,10.13
2018-11-27T12:23:11.193Z,11.60
2018-11-27T12:25:39.150Z,13.03
2018-11-27T12:28:07.468Z,12.20
2018-11-27T12:30:34.953Z,12.40
2018-11-27T12:33:02.384Z,11.43
2018-11-27T12:35:29.938Z,13.07
2018-11-27T12:37:57.477Z,11.07
2018-11-27T12:40:26.076Z,10.93
2018-11-27T12:42:54.387Z,11.30
2018-11-27T12:45:23.291Z,10.27
2018-11-27T12:47:51.523Z,9.03
2018-11-27T12:50:20.867Z,9.17
2018-11-27T12:52:48.501Z,9.77
2018-11-27T12:55:16.586Z,10.30
2018-11-27T12:57:44.143Z,9.53
2018-11-27T13:00:13.279Z,10.10
2018-11-27T13:02:40.786Z,9.10
2018-11-27T13:05:09.150Z,9.57
2018-11-27T13:07:37.067Z,9.33
2018-11-27T13:10:05.342Z,9.80
2018-11-27T13:12:32.845Z,9.27
2018-11-27T13:15:00.296Z,9.63
2018-11-27T13:17:27.989Z,9.37
2018-11-27T13:19:55.505Z,10.13
2018-11-27T13:22:22.927Z,7.80
2018-11-27T13:24:50.485Z,7.57
2018-11-27T13:27:18.060Z,7.97
2018-11-27T13:29:45.496Z,8.70
2018-11-27T13:32:13.400Z,8.10
2018-11-27T13:34:46.418Z,7.53
2018-11-27T13:37:08.601Z,8.43
2018-11-27T13:39:36.583Z,9.20
2018-11-27T13:42:04.069Z,8.60
2018-11-27T13:44:31.500Z,9.90
2018-11-27T13:46:59.034Z,9.67
2018-11-27T13:49:31.987Z,9.70
2018-11-27T13:51:59.518Z,8.90
2018-11-27T13:54:26.940Z,9.20
2018-11-27T13:56:54.424Z,9.43
2018-11-27T13:59:21.964Z,6.53
2018-11-27T14:01:49.532Z,5.93
2018-11-27T14:04:17.087Z,6.33
2018-11-27T14:06:44.676Z,7.07
2018-11-27T14:09:12.235Z,6.60
2018-11-27T14:11:39.888Z,5.57
2018-11-27T14:14:07.802Z,5.53
2018-11-27T14:16:35.693Z,6.77
2018-11-27T14:19:03.300Z,6.63
2018-11-27T14:21:30.729Z,6.80
2018-11-27T14:23:58.583Z,7.20
2018-11-27T14:26:31.761Z,7.20
2018-11-27T14:28:59.621Z,7.50
2018-11-27T14:31:27.179Z,10.63
2018-11-27T14:33:54.737Z,10.07
2018-11-27T14:36:22.488Z,10.57
2018-11-27T14:38:50.137Z,9.77
2018-11-27T14:41:17.800Z,8.57
2018-11-27T14:43:45.258Z,10.57
2018-11-27T14:46:12.693Z,15.30
2018-11-27T14:48:40.345Z,12.27
2018-11-27T14:51:07.793Z,14.00
2018-11-27T14:53:35.240Z,15.80
2018-11-27T14:56:03.255Z,15.83
2018-11-27T14:58:30.773Z,14.13
2018-11-27T15:00:58.237Z,14.27
2018-11-27T15:03:25.710Z,14.80
2018-11-27T15:05:53.315Z,16.87
2018-11-27T15:08:26.561Z,17.77
2018-11-27T15:10:54.185Z,16.90
2018-11-27T15:13:21.683Z,18.00
2018-11-27T15:15:49.185Z,16.37
2018-11-27T15:18:16.941Z,19.73
2018-11-27T15:20:44.485Z,15.10
2018-11-27T15:23:17.640Z,17.57
2018-11-27T15:25:45.252Z,17.50
2018-11-27T15:28:12.860Z,17.40
2018-11-27T15:30:40.502Z,18.27
2018-11-27T15:33:08.062Z,21.37
2018-11-27T15:35:36.034Z,23.30
2018-11-27T15:38:04.079Z,22.50
2018-11-27T15:40:31.688Z,21.90
2018-11-27T15:42:59.129Z,26.00
2018-11-27T15:45:27.211Z,24.73
2018-11-27T15:47:54.693Z,24.90
2018-11-27T15:50:22.139Z,25.27
2018-11-27T15:52:49.653Z,24.87
2018-11-27T15:55:33.684Z,24.63
2018-11-27T15:58:03.325Z,24.17
2018-11-27T16:00:31.014Z,25.03
2018-11-27T16:02:58.444Z,24.27
2018-11-27T16:05:25.935Z,24.70
2018-11-27T16:07:53.513Z,26.37
2018-11-27T16:10:21.039Z,24.77
2018-11-27T16:12:48.851Z,26.33
2018-11-27T16:15:17.493Z,27.30
2018-11-27T16:17:44.945Z,28.33
2018-11-27T16:20:21.657Z,36.57
2018-11-27T16:22:49.686Z,39.70
2018-11-27T16:25:17.725Z,32.43
2018-11-27T16:27:45.522Z,33.83
2018-11-27T16:30:14.622Z,35.03
2018-11-27T16:32:42.098Z,32.77
2018-11-27T16:35:10.518Z,29.83
2018-11-27T16:37:38.717Z,26.93
2018-11-27T16:40:10.081Z,24.23
2018-11-27T16:42:37.686Z,22.23
2018-11-27T16:45:06.427Z,23.53
2018-11-27T16:47:33.884Z,26.43
2018-11-27T16:50:01.554Z,24.40
2018-11-27T16:52:29.208Z,26.53
2018-11-27T16:54:56.787Z,27.47
2018-11-27T16:57:25.145Z,31.73
2018-11-27T16:59:52.780Z,30.33
2018-11-27T17:02:21.005Z,33.30
2018-11-27T17:04:49.333Z,32.60
2018-11-27T17:07:16.986Z,37.27
2018-11-27T17:09:44.668Z,38.33
2018-11-27T17:12:13.595Z,39.53
2018-11-27T17:14:40.004Z,40.40
2018-11-27T17:17:07.678Z,37.17
2018-11-27T17:19:35.362Z,38.13
2018-11-27T17:22:03.109Z,35.80
2018-11-27T17:24:30.558Z,39.10
2018-11-27T17:26:58.048Z,39.37
2018-11-27T17:29:25.496Z,38.20
2018-11-27T17:31:53.279Z,43.27
2018-11-27T17:34:20.820Z,42.80
2018-11-27T17:36:48.264Z,41.50
2018-11-27T17:39:16.090Z,45.50
2018-11-27T17:41:44.125Z,41.67
2018-11-27T17:44:15.237Z,40.87
2018-11-27T17:46:44.528Z,38.53
2018-11-27T17:49:12.202Z,38.37
2018-11-27T17:51:39.696Z,40.57
2018-11-27T17:54:07.410Z,40.47
2018-11-27T17:56:34.859Z,40.20
2018-11-27T17:59:02.621Z,42.20
2018-11-27T18:01:35.508Z,44.33
2018-11-27T18:04:03.081Z,40.23
2018-11-27T18:06:30.533Z,36.10
2018-11-27T18:08:58.136Z,36.50
2018-11-27T18:11:25.564Z,39.97
2018-11-27T18:13:53.004Z,40.07
2018-11-27T18:16:20.458Z,43.73
2018-11-27T18:18:48.158Z,40.67
2018-11-27T18:21:15.896Z,41.30
2018-11-27T18:23:43.542Z,37.50
2018-11-27T18:26:11.010Z,42.03
2018-11-27T18:28:38.460Z,43.93
2018-11-27T18:31:06.496Z,40.13
2018-11-27T18:33:34.049Z,42.17
2018-11-27T18:36:01.481Z,42.43
2018-11-27T18:38:28.981Z,40.40
2018-11-27T18:40:56.734Z,43.23
2018-11-27T18:43:24.400Z,44.77
2018-11-27T18:45:52.102Z,44.23
2018-11-27T18:48:20.079Z,44.00
2018-11-27T18:50:47.747Z,44.07
2018-11-27T18:53:15.587Z,46.20
2018-11-27T18:55:43.331Z,55.83
2018-11-27T18:58:10.815Z,53.20
2018-11-27T19:00:38.424Z,92.40
2018-11-27T19:03:05.874Z,85.93
2018-11-27T19:05:33.347Z,86.53
2018-11-27T19:08:01.065Z,80.27
2018-11-27T19:10:29.413Z,56.47
2018-11-27T19:12:56.994Z,52.53
2018-11-27T19:15:25.549Z,50.57
2018-11-27T19:17:54.844Z,48.70
2018-11-27T19:20:22.749Z,45.67
2018-11-27T19:22:50.505Z,44.07
2018-11-27T19:25:18.267Z,45.83
2018-11-27T19:27:45.960Z,45.60
2018-11-27T19:30:16.148Z,47.37
2018-11-27T19:32:42.698Z,49.43
2018-11-27T19:35:11.854Z,51.43
2018-11-27T19:37:39.558Z,55.35
2018-11-27T19:40:09.721Z,49.43
2018-11-27T19:42:37.300Z,53.23
2018-11-27T19:45:06.454Z,49.80
2018-11-27T19:47:34.330Z,46.43
2018-11-27T19:50:01.896Z,48.13
2018-11-27T19:52:30.194Z,47.07
2018-11-27T19:54:57.678Z,48.53
2018-11-27T19:57:25.673Z,49.20
2018-11-27T19:59:53.455Z,51.23
2018-11-27T20:02:21.103Z,51.53
2018-11-27T20:04:48.674Z,50.27
2018-11-27T20:07:21.741Z,52.27
2018-11-27T20:09:49.190Z,54.27
2018-11-27T20:12:22.491Z,54.00
2018-11-27T20:14:50.161Z,51.63
2018-11-27T20:17:17.846Z,52.57
2018-11-27T20:22:19.435Z,49.47
2018-11-27T20:24:47.024Z,51.43
2018-11-27T20:27:20.104Z,54.00
2018-11-27T20:29:47.753Z,52.03
2018-11-27T20:32:20.664Z,51.67
2018-11-27T20:34:48.253Z,54.60
2018-11-27T20:37:15.715Z,54.07
2018-11-27T20:39:43.301Z,50.57
2018-11-27T20:42:10.995Z,54.57
2018-11-27T20:44:38.487Z,53.00
2018-11-27T20:47:07.561Z,52.87
2018-11-27T20:49:33.897Z,50.70
2018-11-27T20:52:06.806Z,49.33
2018-11-27T20:54:34.528Z,51.47
2018-11-27T20:57:02.164Z,52.63
2018-11-27T20:59:34.997Z,54.27
2018-11-27T21:02:02.472Z,57.20
2018-11-27T21:04:30.426Z,57.63
2018-11-27T21:06:58.193Z,58.37
2018-11-27T21:09:25.961Z,65.27
2018-11-27T21:11:53.504Z,63.97
2018-11-27T21:14:21.165Z,62.50
2018-11-27T21:16:48.638Z,60.83
2018-11-27T21:19:16.276Z,58.30
2018-11-27T21:21:43.851Z,58.40
2018-11-27T21:24:11.325Z,60.07
2018-11-27T21:26:38.910Z,60.27
2018-11-27T21:29:06.425Z,56.37
2018-11-27T21:31:34.111Z,58.60
2018-11-27T21:34:01.684Z,60.27
2018-11-27T21:36:29.451Z,60.97
2018-11-27T21:38:57.143Z,62.53
2018-11-27T21:41:24.637Z,59.40
2018-11-27T21:43:52.313Z,63.70
2018-11-27T21:46:20.082Z,62.07
2018-11-27T21:48:47.885Z,63.50
2018-11-27T21:51:15.521Z,60.03
2018-11-27T21:53:43.009Z,59.10
2018-11-27T21:56:10.522Z,61.43
2018-11-27T21:58:38.047Z,57.77
2018-11-27T22:01:05.976Z,59.00
2018-11-27T22:03:33.493Z,57.80
2018-11-27T22:06:00.961Z,61.07
2018-11-27T22:08:28.769Z,57.27
2018-11-27T22:11:01.743Z,61.23
2018-11-27T22:13:29.242Z,58.47
2018-11-27T22:15:56.899Z,60.43
2018-11-27T22:18:24.463Z,61.97
2018-11-27T22:20:57.304Z,67.90
2018-11-27T22:23:24.885Z,68.90
2018-11-27T22:25:52.509Z,60.63
2018-11-27T22:28:20.043Z,61.93
2018-11-27T22:30:47.547Z,62.40
2018-11-27T22:33:15.130Z,64.07
2018-11-27T22:35:42.777Z,61.13
2018-11-27T22:38:10.368Z,61.57
2018-11-27T22:40:38.279Z,63.13
2018-11-27T22:43:06.538Z,59.00
2018-11-27T22:45:36.079Z,57.63
2018-11-27T22:48:03.619Z,60.47
2018-11-27T22:50:31.402Z,56.93
2018-11-27T22:52:58.935Z,55.30
2018-11-27T22:55:26.378Z,55.53
2018-11-27T22:57:54.044Z,57.33
2018-11-27T23:00:32.764Z,60.37
2018-11-27T23:03:05.715Z,67.30
2018-11-27T23:05:33.389Z,62.47
2018-11-27T23:08:00.835Z,61.57
2018-11-27T23:10:29.833Z,58.23
2018-11-27T23:12:57.353Z,55.93
2018-11-27T23:15:24.841Z,54.97
2018-11-27T23:17:52.363Z,57.83
2018-11-27T23:20:20.260Z,54.13
2018-11-27T23:22:47.742Z,53.97
2018-11-27T23:25:15.963Z,58.27
2018-11-27T23:27:44.036Z,58.00
2018-11-27T23:30:13.249Z,58.27
2018-11-27T23:32:40.732Z,57.53
2018-11-27T23:35:08.229Z,58.53
2018-11-27T23:38:06.217Z,56.77
2018-11-27T23:40:36.212Z,54.70
2018-11-27T23:57:29.149Z,61.60
